sensor_id;sensor_type;location;lat;lon;timestamp;P1;durP1;ratioP1;P2;durP2;ratioP2
24483;SDS011;12643;51.620;7.548;2024-03-08T00:00:01;37.72;;;23.67;;
24483;SDS011;12643;51.620;7.548;2024-03-08T00:02:36;39.60;;;24.20;;
24483;SDS011;12643;51.620;7.548;2024-03-08T00:05:05;36.22;;;24.27;;
24483;SDS011;12643;51.620;7.548;2024-03-08T00:07:34;35.92;;;23.30;;
24483;SDS011;12643;51.620;7.548;2024-03-08T00:10:03;38.00;;;23.95;;
24483;SDS011;12643;51.620;7.548;2024-03-08T00:12:32;40.17;;;22.33;;
24483;SDS011;12643;51.620;7.548;2024-03-08T00:15:00;40.65;;;24.85;;
24483;SDS011;12643;51.620;7.548;2024-03-08T00:17:29;36.90;;;24.15;;
24483;SDS011;12643;51.620;7.548;2024-03-08T00:19:59;38.97;;;24.42;;
24483;SDS011;12643;51.620;7.548;2024-03-08T00:24:56;35.90;;;21.92;;
24483;SDS011;12643;51.620;7.548;2024-03-08T00:27:24;33.33;;;21.08;;
24483;SDS011;12643;51.620;7.548;2024-03-08T00:29:52;39.50;;;23.75;;
24483;SDS011;12643;51.620;7.548;2024-03-08T00:32:20;33.88;;;23.55;;
24483;SDS011;12643;51.620;7.548;2024-03-08T00:34:49;42.88;;;25.25;;
24483;SDS011;12643;51.620;7.548;2024-03-08T00:37:19;42.67;;;26.45;;
24483;SDS011;12643;51.620;7.548;2024-03-08T00:39:47;42.20;;;24.70;;
24483;SDS011;12643;51.620;7.548;2024-03-08T00:42:16;39.25;;;25.63;;
24483;SDS011;12643;51.620;7.548;2024-03-08T00:44:46;38.40;;;24.83;;
24483;SDS011;12643;51.620;7.548;2024-03-08T00:47:16;39.53;;;25.45;;
24483;SDS011;12643;51.620;7.548;2024-03-08T00:49:45;37.10;;;23.65;;
24483;SDS011;12643;51.620;7.548;2024-03-08T00:52:13;42.53;;;25.90;;
24483;SDS011;12643;51.620;7.548;2024-03-08T00:54:43;39.17;;;24.98;;
24483;SDS011;12643;51.620;7.548;2024-03-08T00:57:10;38.53;;;25.33;;
24483;SDS011;12643;51.620;7.548;2024-03-08T00:59:38;38.25;;;24.70;;
24483;SDS011;12643;51.620;7.548;2024-03-08T01:02:07;45.08;;;26.67;;
24483;SDS011;12643;51.620;7.548;2024-03-08T01:04:36;38.17;;;24.67;;
24483;SDS011;12643;51.620;7.548;2024-03-08T01:07:05;43.90;;;26.45;;
24483;SDS011;12643;51.620;7.548;2024-03-08T01:09:33;44.65;;;27.25;;
24483;SDS011;12643;51.620;7.548;2024-03-08T01:12:03;39.85;;;25.00;;
24483;SDS011;12643;51.620;7.548;2024-03-08T01:14:32;43.08;;;26.63;;
24483;SDS011;12643;51.620;7.548;2024-03-08T01:17:01;35.88;;;25.30;;
24483;SDS011;12643;51.620;7.548;2024-03-08T01:19:29;37.65;;;24.38;;
24483;SDS011;12643;51.620;7.548;2024-03-08T01:21:58;41.28;;;24.83;;
24483;SDS011;12643;51.620;7.548;2024-03-08T01:24:26;41.00;;;25.08;;
24483;SDS011;12643;51.620;7.548;2024-03-08T01:26:55;41.47;;;24.85;;
24483;SDS011;12643;51.620;7.548;2024-03-08T01:29:25;40.40;;;26.08;;
24483;SDS011;12643;51.620;7.548;2024-03-08T01:31:53;38.70;;;25.25;;
24483;SDS011;12643;51.620;7.548;2024-03-08T01:34:22;45.20;;;28.80;;
24483;SDS011;12643;51.620;7.548;2024-03-08T01:36:50;38.58;;;24.00;;
24483;SDS011;12643;51.620;7.548;2024-03-08T01:39:18;44.03;;;25.45;;
24483;SDS011;12643;51.620;7.548;2024-03-08T01:41:47;43.83;;;26.40;;
24483;SDS011;12643;51.620;7.548;2024-03-08T01:44:16;41.72;;;25.52;;
24483;SDS011;12643;51.620;7.548;2024-03-08T01:46:45;41.30;;;25.25;;
24483;SDS011;12643;51.620;7.548;2024-03-08T01:49:15;39.65;;;26.60;;
24483;SDS011;12643;51.620;7.548;2024-03-08T01:51:46;41.00;;;25.80;;
24483;SDS011;12643;51.620;7.548;2024-03-08T01:54:18;39.28;;;24.90;;
24483;SDS011;12643;51.620;7.548;2024-03-08T01:56:46;42.13;;;26.27;;
24483;SDS011;12643;51.620;7.548;2024-03-08T01:59:16;38.35;;;25.55;;
24483;SDS011;12643;51.620;7.548;2024-03-08T02:01:46;42.05;;;26.08;;
24483;SDS011;12643;51.620;7.548;2024-03-08T02:04:15;43.28;;;26.92;;
24483;SDS011;12643;51.620;7.548;2024-03-08T02:06:43;44.28;;;26.92;;
24483;SDS011;12643;51.620;7.548;2024-03-08T02:09:11;43.45;;;26.20;;
24483;SDS011;12643;51.620;7.548;2024-03-08T02:11:40;45.80;;;27.70;;
24483;SDS011;12643;51.620;7.548;2024-03-08T02:14:08;43.00;;;27.10;;
24483;SDS011;12643;51.620;7.548;2024-03-08T02:16:36;45.58;;;26.83;;
24483;SDS011;12643;51.620;7.548;2024-03-08T02:19:06;41.20;;;26.88;;
24483;SDS011;12643;51.620;7.548;2024-03-08T02:21:36;45.28;;;26.23;;
24483;SDS011;12643;51.620;7.548;2024-03-08T02:24:05;43.15;;;26.10;;
24483;SDS011;12643;51.620;7.548;2024-03-08T02:26:33;39.88;;;25.35;;
24483;SDS011;12643;51.620;7.548;2024-03-08T02:29:01;44.33;;;27.02;;
24483;SDS011;12643;51.620;7.548;2024-03-08T02:31:30;44.70;;;27.55;;
24483;SDS011;12643;51.620;7.548;2024-03-08T02:33:58;45.70;;;27.33;;
24483;SDS011;12643;51.620;7.548;2024-03-08T02:36:27;44.35;;;26.75;;
24483;SDS011;12643;51.620;7.548;2024-03-08T02:38:56;40.97;;;25.67;;
24483;SDS011;12643;51.620;7.548;2024-03-08T02:41:24;45.22;;;27.10;;
24483;SDS011;12643;51.620;7.548;2024-03-08T02:43:52;42.70;;;26.33;;
24483;SDS011;12643;51.620;7.548;2024-03-08T02:46:21;45.38;;;28.60;;
24483;SDS011;12643;51.620;7.548;2024-03-08T02:48:49;42.90;;;26.17;;
24483;SDS011;12643;51.620;7.548;2024-03-08T02:51:17;42.10;;;25.65;;
24483;SDS011;12643;51.620;7.548;2024-03-08T02:53:45;41.95;;;26.33;;
24483;SDS011;12643;51.620;7.548;2024-03-08T02:56:16;43.80;;;28.05;;
24483;SDS011;12643;51.620;7.548;2024-03-08T02:58:44;45.75;;;26.85;;
24483;SDS011;12643;51.620;7.548;2024-03-08T03:01:14;44.50;;;26.10;;
24483;SDS011;12643;51.620;7.548;2024-03-08T03:03:42;45.90;;;25.75;;
24483;SDS011;12643;51.620;7.548;2024-03-08T03:06:12;46.20;;;28.05;;
24483;SDS011;12643;51.620;7.548;2024-03-08T03:08:41;47.17;;;27.13;;
24483;SDS011;12643;51.620;7.548;2024-03-08T03:11:11;49.03;;;27.58;;
24483;SDS011;12643;51.620;7.548;2024-03-08T03:13:40;44.40;;;25.55;;
24483;SDS011;12643;51.620;7.548;2024-03-08T03:16:16;45.85;;;28.15;;
24483;SDS011;12643;51.620;7.548;2024-03-08T03:18:45;41.00;;;25.50;;
24483;SDS011;12643;51.620;7.548;2024-03-08T03:21:13;43.67;;;26.23;;
24483;SDS011;12643;51.620;7.548;2024-03-08T03:23:43;44.97;;;27.23;;
24483;SDS011;12643;51.620;7.548;2024-03-08T03:26:13;46.22;;;27.33;;
24483;SDS011;12643;51.620;7.548;2024-03-08T03:28:44;43.72;;;26.90;;
24483;SDS011;12643;51.620;7.548;2024-03-08T03:31:12;45.55;;;26.58;;
24483;SDS011;12643;51.620;7.548;2024-03-08T03:33:41;45.67;;;26.85;;
24483;SDS011;12643;51.620;7.548;2024-03-08T03:36:09;40.30;;;26.48;;
24483;SDS011;12643;51.620;7.548;2024-03-08T03:38:37;47.88;;;27.02;;
24483;SDS011;12643;51.620;7.548;2024-03-08T03:41:05;44.53;;;27.45;;
24483;SDS011;12643;51.620;7.548;2024-03-08T03:43:35;45.20;;;26.63;;
24483;SDS011;12643;51.620;7.548;2024-03-08T03:46:06;49.60;;;29.10;;
24483;SDS011;12643;51.620;7.548;2024-03-08T03:48:36;48.95;;;28.75;;
24483;SDS011;12643;51.620;7.548;2024-03-08T03:51:04;45.70;;;27.73;;
24483;SDS011;12643;51.620;7.548;2024-03-08T03:53:33;46.70;;;29.45;;
24483;SDS011;12643;51.620;7.548;2024-03-08T03:56:01;43.30;;;26.70;;
24483;SDS011;12643;51.620;7.548;2024-03-08T03:58:32;47.70;;;26.55;;
24483;SDS011;12643;51.620;7.548;2024-03-08T04:01:04;45.90;;;27.83;;
24483;SDS011;12643;51.620;7.548;2024-03-08T04:03:40;49.45;;;27.27;;
24483;SDS011;12643;51.620;7.548;2024-03-08T04:06:10;48.70;;;27.38;;
24483;SDS011;12643;51.620;7.548;2024-03-08T04:08:38;50.35;;;28.52;;
24483;SDS011;12643;51.620;7.548;2024-03-08T04:11:06;46.85;;;27.50;;
24483;SDS011;12643;51.620;7.548;2024-03-08T04:13:35;47.83;;;28.75;;
24483;SDS011;12643;51.620;7.548;2024-03-08T04:16:03;50.08;;;29.52;;
24483;SDS011;12643;51.620;7.548;2024-03-08T04:18:35;53.00;;;30.38;;
24483;SDS011;12643;51.620;7.548;2024-03-08T04:21:03;49.60;;;27.95;;
24483;SDS011;12643;51.620;7.548;2024-03-08T04:23:33;47.53;;;29.08;;
24483;SDS011;12643;51.620;7.548;2024-03-08T04:26:02;49.92;;;26.83;;
24483;SDS011;12643;51.620;7.548;2024-03-08T04:28:32;45.03;;;28.77;;
24483;SDS011;12643;51.620;7.548;2024-03-08T04:31:00;47.42;;;28.08;;
24483;SDS011;12643;51.620;7.548;2024-03-08T04:33:29;45.45;;;27.80;;
24483;SDS011;12643;51.620;7.548;2024-03-08T04:35:59;50.38;;;28.17;;
24483;SDS011;12643;51.620;7.548;2024-03-08T04:38:30;48.10;;;29.52;;
24483;SDS011;12643;51.620;7.548;2024-03-08T04:40:59;48.15;;;29.42;;
24483;SDS011;12643;51.620;7.548;2024-03-08T04:43:28;50.80;;;29.30;;
24483;SDS011;12643;51.620;7.548;2024-03-08T04:45:56;47.80;;;28.33;;
24483;SDS011;12643;51.620;7.548;2024-03-08T04:48:24;50.47;;;29.63;;
24483;SDS011;12643;51.620;7.548;2024-03-08T04:50:53;46.63;;;28.63;;
24483;SDS011;12643;51.620;7.548;2024-03-08T04:53:23;49.00;;;29.85;;
24483;SDS011;12643;51.620;7.548;2024-03-08T04:55:51;51.88;;;29.50;;
24483;SDS011;12643;51.620;7.548;2024-03-08T04:58:19;48.92;;;29.13;;
24483;SDS011;12643;51.620;7.548;2024-03-08T05:00:47;51.05;;;28.20;;
24483;SDS011;12643;51.620;7.548;2024-03-08T05:03:16;53.80;;;29.92;;
24483;SDS011;12643;51.620;7.548;2024-03-08T05:05:44;52.38;;;29.83;;
24483;SDS011;12643;51.620;7.548;2024-03-08T05:08:12;50.78;;;29.33;;
24483;SDS011;12643;51.620;7.548;2024-03-08T05:10:42;51.22;;;29.73;;
24483;SDS011;12643;51.620;7.548;2024-03-08T05:13:13;53.47;;;30.00;;
24483;SDS011;12643;51.620;7.548;2024-03-08T05:15:42;49.08;;;28.77;;
24483;SDS011;12643;51.620;7.548;2024-03-08T05:18:09;49.05;;;30.08;;
24483;SDS011;12643;51.620;7.548;2024-03-08T05:20:40;58.00;;;29.23;;
24483;SDS011;12643;51.620;7.548;2024-03-08T05:23:08;53.00;;;29.80;;
24483;SDS011;12643;51.620;7.548;2024-03-08T05:25:36;49.03;;;29.38;;
24483;SDS011;12643;51.620;7.548;2024-03-08T05:28:25;53.28;;;30.20;;
24483;SDS011;12643;51.620;7.548;2024-03-08T05:30:54;53.42;;;28.67;;
24483;SDS011;12643;51.620;7.548;2024-03-08T05:33:22;48.88;;;29.95;;
24483;SDS011;12643;51.620;7.548;2024-03-08T05:35:51;50.45;;;29.50;;
24483;SDS011;12643;51.620;7.548;2024-03-08T05:38:20;51.42;;;29.00;;
24483;SDS011;12643;51.620;7.548;2024-03-08T05:40:48;50.92;;;29.02;;
24483;SDS011;12643;51.620;7.548;2024-03-08T05:43:16;51.78;;;29.60;;
24483;SDS011;12643;51.620;7.548;2024-03-08T05:45:46;54.35;;;29.55;;
24483;SDS011;12643;51.620;7.548;2024-03-08T05:48:14;54.20;;;29.90;;
24483;SDS011;12643;51.620;7.548;2024-03-08T05:50:44;51.22;;;31.08;;
24483;SDS011;12643;51.620;7.548;2024-03-08T05:53:13;57.38;;;31.30;;
24483;SDS011;12643;51.620;7.548;2024-03-08T05:55:41;53.08;;;31.52;;
24483;SDS011;12643;51.620;7.548;2024-03-08T05:58:09;48.97;;;28.55;;
24483;SDS011;12643;51.620;7.548;2024-03-08T06:00:37;52.20;;;30.27;;
24483;SDS011;12643;51.620;7.548;2024-03-08T06:03:06;55.75;;;30.30;;
24483;SDS011;12643;51.620;7.548;2024-03-08T06:05:35;57.65;;;31.88;;
24483;SDS011;12643;51.620;7.548;2024-03-08T06:08:07;51.38;;;29.75;;
24483;SDS011;12643;51.620;7.548;2024-03-08T06:10:35;56.20;;;31.40;;
24483;SDS011;12643;51.620;7.548;2024-03-08T06:13:03;51.35;;;29.58;;
24483;SDS011;12643;51.620;7.548;2024-03-08T06:15:33;58.85;;;31.13;;
24483;SDS011;12643;51.620;7.548;2024-03-08T06:18:02;53.08;;;30.55;;
24483;SDS011;12643;51.620;7.548;2024-03-08T06:20:32;53.97;;;31.65;;
24483;SDS011;12643;51.620;7.548;2024-03-08T06:23:00;53.08;;;31.77;;
24483;SDS011;12643;51.620;7.548;2024-03-08T06:25:28;58.72;;;31.50;;
24483;SDS011;12643;51.620;7.548;2024-03-08T06:27:56;58.25;;;32.72;;
24483;SDS011;12643;51.620;7.548;2024-03-08T06:30:25;61.15;;;33.08;;
24483;SDS011;12643;51.620;7.548;2024-03-08T06:32:53;61.55;;;32.40;;
24483;SDS011;12643;51.620;7.548;2024-03-08T06:35:20;59.83;;;32.15;;
24483;SDS011;12643;51.620;7.548;2024-03-08T06:37:50;60.90;;;34.58;;
24483;SDS011;12643;51.620;7.548;2024-03-08T06:40:19;58.53;;;33.13;;
24483;SDS011;12643;51.620;7.548;2024-03-08T06:42:46;61.70;;;33.55;;
24483;SDS011;12643;51.620;7.548;2024-03-08T06:45:15;53.95;;;32.65;;
24483;SDS011;12643;51.620;7.548;2024-03-08T06:47:46;59.47;;;33.40;;
24483;SDS011;12643;51.620;7.548;2024-03-08T06:50:15;56.67;;;32.47;;
24483;SDS011;12643;51.620;7.548;2024-03-08T06:52:43;58.53;;;32.42;;
24483;SDS011;12643;51.620;7.548;2024-03-08T06:55:18;60.40;;;30.70;;
24483;SDS011;12643;51.620;7.548;2024-03-08T06:57:46;53.15;;;31.60;;
24483;SDS011;12643;51.620;7.548;2024-03-08T07:00:14;59.13;;;33.35;;
24483;SDS011;12643;51.620;7.548;2024-03-08T07:02:46;59.90;;;32.13;;
24483;SDS011;12643;51.620;7.548;2024-03-08T07:05:15;57.10;;;32.28;;
24483;SDS011;12643;51.620;7.548;2024-03-08T07:07:43;63.97;;;32.95;;
24483;SDS011;12643;51.620;7.548;2024-03-08T07:10:14;49.43;;;30.87;;
24483;SDS011;12643;51.620;7.548;2024-03-08T07:12:43;60.08;;;32.67;;
24483;SDS011;12643;51.620;7.548;2024-03-08T07:15:12;52.63;;;31.60;;
24483;SDS011;12643;51.620;7.548;2024-03-08T07:17:40;59.55;;;33.58;;
24483;SDS011;12643;51.620;7.548;2024-03-08T07:20:10;59.33;;;33.08;;
24483;SDS011;12643;51.620;7.548;2024-03-08T07:22:40;54.95;;;32.95;;
24483;SDS011;12643;51.620;7.548;2024-03-08T07:25:09;58.42;;;33.78;;
24483;SDS011;12643;51.620;7.548;2024-03-08T07:27:48;59.45;;;33.92;;
24483;SDS011;12643;51.620;7.548;2024-03-08T07:30:17;56.80;;;33.78;;
24483;SDS011;12643;51.620;7.548;2024-03-08T07:32:59;60.92;;;33.90;;
24483;SDS011;12643;51.620;7.548;2024-03-08T07:35:27;60.00;;;33.13;;
24483;SDS011;12643;51.620;7.548;2024-03-08T07:37:56;59.47;;;32.65;;
24483;SDS011;12643;51.620;7.548;2024-03-08T07:40:25;63.65;;;34.50;;
24483;SDS011;12643;51.620;7.548;2024-03-08T07:42:56;57.25;;;32.90;;
24483;SDS011;12643;51.620;7.548;2024-03-08T07:45:24;58.97;;;31.80;;
24483;SDS011;12643;51.620;7.548;2024-03-08T07:47:52;58.38;;;33.38;;
24483;SDS011;12643;51.620;7.548;2024-03-08T07:50:21;63.38;;;33.03;;
24483;SDS011;12643;51.620;7.548;2024-03-08T07:52:49;54.03;;;30.50;;
24483;SDS011;12643;51.620;7.548;2024-03-08T07:55:17;52.58;;;31.02;;
24483;SDS011;12643;51.620;7.548;2024-03-08T07:57:46;53.85;;;29.92;;
24483;SDS011;12643;51.620;7.548;2024-03-08T08:00:16;55.20;;;32.00;;
24483;SDS011;12643;51.620;7.548;2024-03-08T08:02:44;54.97;;;31.08;;
24483;SDS011;12643;51.620;7.548;2024-03-08T08:05:12;53.47;;;32.70;;
24483;SDS011;12643;51.620;7.548;2024-03-08T08:07:40;56.97;;;31.85;;
24483;SDS011;12643;51.620;7.548;2024-03-08T08:10:11;65.55;;;34.17;;
24483;SDS011;12643;51.620;7.548;2024-03-08T08:12:44;55.35;;;33.42;;
24483;SDS011;12643;51.620;7.548;2024-03-08T08:15:12;53.67;;;31.92;;
24483;SDS011;12643;51.620;7.548;2024-03-08T08:17:43;52.33;;;31.48;;
24483;SDS011;12643;51.620;7.548;2024-03-08T08:20:12;52.05;;;31.27;;
24483;SDS011;12643;51.620;7.548;2024-03-08T08:22:41;56.95;;;32.33;;
24483;SDS011;12643;51.620;7.548;2024-03-08T08:25:10;57.80;;;32.00;;
24483;SDS011;12643;51.620;7.548;2024-03-08T08:27:39;56.00;;;31.23;;
24483;SDS011;12643;51.620;7.548;2024-03-08T08:30:08;54.45;;;31.17;;
24483;SDS011;12643;51.620;7.548;2024-03-08T08:32:37;56.05;;;32.00;;
24483;SDS011;12643;51.620;7.548;2024-03-08T08:35:09;53.70;;;32.20;;
24483;SDS011;12643;51.620;7.548;2024-03-08T08:37:38;57.10;;;32.60;;
24483;SDS011;12643;51.620;7.548;2024-03-08T08:40:07;54.80;;;32.90;;
24483;SDS011;12643;51.620;7.548;2024-03-08T08:42:39;54.90;;;31.42;;
24483;SDS011;12643;51.620;7.548;2024-03-08T08:45:08;55.08;;;31.40;;
24483;SDS011;12643;51.620;7.548;2024-03-08T08:47:37;56.83;;;32.03;;
24483;SDS011;12643;51.620;7.548;2024-03-08T08:50:09;52.88;;;32.35;;
24483;SDS011;12643;51.620;7.548;2024-03-08T08:52:38;50.80;;;30.77;;
24483;SDS011;12643;51.620;7.548;2024-03-08T08:55:09;50.78;;;31.27;;
24483;SDS011;12643;51.620;7.548;2024-03-08T08:57:39;55.67;;;30.43;;
24483;SDS011;12643;51.620;7.548;2024-03-08T09:00:08;48.78;;;28.30;;
24483;SDS011;12643;51.620;7.548;2024-03-08T09:02:40;56.05;;;32.15;;
24483;SDS011;12643;51.620;7.548;2024-03-08T09:05:10;53.63;;;29.88;;
24483;SDS011;12643;51.620;7.548;2024-03-08T09:07:40;49.25;;;28.42;;
24483;SDS011;12643;51.620;7.548;2024-03-08T09:10:10;50.78;;;30.70;;
24483;SDS011;12643;51.620;7.548;2024-03-08T09:12:40;48.47;;;29.30;;
24483;SDS011;12643;51.620;7.548;2024-03-08T09:15:08;50.40;;;29.85;;
24483;SDS011;12643;51.620;7.548;2024-03-08T09:17:36;44.72;;;28.10;;
24483;SDS011;12643;51.620;7.548;2024-03-08T09:20:06;52.55;;;29.20;;
24483;SDS011;12643;51.620;7.548;2024-03-08T09:22:37;50.30;;;29.20;;
24483;SDS011;12643;51.620;7.548;2024-03-08T09:25:06;50.05;;;28.38;;
24483;SDS011;12643;51.620;7.548;2024-03-08T09:27:35;53.35;;;31.15;;
24483;SDS011;12643;51.620;7.548;2024-03-08T09:30:05;47.58;;;29.40;;
24483;SDS011;12643;51.620;7.548;2024-03-08T09:32:34;48.33;;;28.65;;
24483;SDS011;12643;51.620;7.548;2024-03-08T09:35:02;48.03;;;29.02;;
24483;SDS011;12643;51.620;7.548;2024-03-08T09:37:32;46.83;;;28.10;;
24483;SDS011;12643;51.620;7.548;2024-03-08T09:40:02;47.30;;;29.33;;
24483;SDS011;12643;51.620;7.548;2024-03-08T09:42:34;48.22;;;29.08;;
24483;SDS011;12643;51.620;7.548;2024-03-08T09:45:04;47.00;;;28.85;;
24483;SDS011;12643;51.620;7.548;2024-03-08T09:47:37;40.72;;;26.00;;
24483;SDS011;12643;51.620;7.548;2024-03-08T09:50:07;51.45;;;28.83;;
24483;SDS011;12643;51.620;7.548;2024-03-08T09:52:38;44.47;;;28.17;;
24483;SDS011;12643;51.620;7.548;2024-03-08T09:55:08;49.58;;;28.75;;
24483;SDS011;12643;51.620;7.548;2024-03-08T10:00:06;43.83;;;26.27;;
24483;SDS011;12643;51.620;7.548;2024-03-08T10:02:45;52.03;;;26.23;;
24483;SDS011;12643;51.620;7.548;2024-03-08T10:05:12;52.38;;;28.98;;
24483;SDS011;12643;51.620;7.548;2024-03-08T10:07:40;44.08;;;27.83;;
24483;SDS011;12643;51.620;7.548;2024-03-08T10:10:10;54.70;;;29.70;;
24483;SDS011;12643;51.620;7.548;2024-03-08T10:12:38;61.40;;;24.80;;
24483;SDS011;12643;51.620;7.548;2024-03-08T10:15:06;40.28;;;25.40;;
24483;SDS011;12643;51.620;7.548;2024-03-08T10:17:35;44.28;;;26.08;;
24483;SDS011;12643;51.620;7.548;2024-03-08T10:20:03;39.97;;;25.83;;
24483;SDS011;12643;51.620;7.548;2024-03-08T10:22:40;39.45;;;26.48;;
24483;SDS011;12643;51.620;7.548;2024-03-08T10:25:11;39.75;;;25.10;;
24483;SDS011;12643;51.620;7.548;2024-03-08T10:27:39;39.20;;;25.52;;
24483;SDS011;12643;51.620;7.548;2024-03-08T10:30:10;41.75;;;26.55;;
24483;SDS011;12643;51.620;7.548;2024-03-08T10:35:08;41.00;;;25.42;;
24483;SDS011;12643;51.620;7.548;2024-03-08T10:37:40;39.30;;;25.30;;
24483;SDS011;12643;51.620;7.548;2024-03-08T10:40:15;43.67;;;24.80;;
24483;SDS011;12643;51.620;7.548;2024-03-08T10:42:47;42.45;;;25.90;;
24483;SDS011;12643;51.620;7.548;2024-03-08T10:45:26;42.30;;;25.73;;
24483;SDS011;12643;51.620;7.548;2024-03-08T10:50:53;43.70;;;24.85;;
24483;SDS011;12643;51.620;7.548;2024-03-08T10:53:22;40.22;;;24.35;;
24483;SDS011;12643;51.620;7.548;2024-03-08T10:55:52;40.90;;;23.98;;
24483;SDS011;12643;51.620;7.548;2024-03-08T10:58:22;37.55;;;24.15;;
24483;SDS011;12643;51.620;7.548;2024-03-08T11:06:15;45.30;;;24.45;;
24483;SDS011;12643;51.620;7.548;2024-03-08T11:08:44;38.30;;;23.88;;
24483;SDS011;12643;51.620;7.548;2024-03-08T11:11:31;36.00;;;25.05;;
24483;SDS011;12643;51.620;7.548;2024-03-08T11:14:01;31.80;;;22.45;;
24483;SDS011;12643;51.620;7.548;2024-03-08T11:16:36;44.45;;;22.85;;
24483;SDS011;12643;51.620;7.548;2024-03-08T11:19:25;33.38;;;22.13;;
24483;SDS011;12643;51.620;7.548;2024-03-08T11:22:00;36.95;;;22.58;;
24483;SDS011;12643;51.620;7.548;2024-03-08T11:24:36;34.97;;;21.75;;
24483;SDS011;12643;51.620;7.548;2024-03-08T11:27:09;30.25;;;21.25;;
24483;SDS011;12643;51.620;7.548;2024-03-08T11:29:37;32.53;;;21.10;;
24483;SDS011;12643;51.620;7.548;2024-03-08T11:32:09;31.63;;;21.10;;
24483;SDS011;12643;51.620;7.548;2024-03-08T11:34:39;28.77;;;19.80;;
24483;SDS011;12643;51.620;7.548;2024-03-08T11:39:38;33.10;;;20.50;;
24483;SDS011;12643;51.620;7.548;2024-03-08T11:42:07;36.92;;;20.67;;
24483;SDS011;12643;51.620;7.548;2024-03-08T11:44:38;30.13;;;19.45;;
24483;SDS011;12643;51.620;7.548;2024-03-08T11:47:10;32.10;;;20.48;;
24483;SDS011;12643;51.620;7.548;2024-03-08T11:49:38;28.50;;;19.25;;
24483;SDS011;12643;51.620;7.548;2024-03-08T11:54:39;25.23;;;17.58;;
24483;SDS011;12643;51.620;7.548;2024-03-08T11:57:07;28.67;;;18.38;;
24483;SDS011;12643;51.620;7.548;2024-03-08T11:59:37;26.88;;;16.10;;
24483;SDS011;12643;51.620;7.548;2024-03-08T12:02:05;28.38;;;16.90;;
24483;SDS011;12643;51.620;7.548;2024-03-08T12:04:35;29.05;;;17.10;;
24483;SDS011;12643;51.620;7.548;2024-03-08T12:07:04;25.20;;;16.92;;
24483;SDS011;12643;51.620;7.548;2024-03-08T12:09:37;24.75;;;17.30;;
24483;SDS011;12643;51.620;7.548;2024-03-08T12:12:12;22.63;;;16.20;;
24483;SDS011;12643;51.620;7.548;2024-03-08T12:14:44;24.27;;;16.20;;
24483;SDS011;12643;51.620;7.548;2024-03-08T12:17:12;24.55;;;15.63;;
24483;SDS011;12643;51.620;7.548;2024-03-08T12:19:40;24.25;;;15.48;;
24483;SDS011;12643;51.620;7.548;2024-03-08T12:22:14;27.00;;;15.52;;
24483;SDS011;12643;51.620;7.548;2024-03-08T12:24:42;23.20;;;16.27;;
24483;SDS011;12643;51.620;7.548;2024-03-08T12:27:19;21.85;;;15.73;;
24483;SDS011;12643;51.620;7.548;2024-03-08T12:29:48;22.08;;;15.80;;
24483;SDS011;12643;51.620;7.548;2024-03-08T12:32:17;27.15;;;16.17;;
24483;SDS011;12643;51.620;7.548;2024-03-08T12:34:51;24.05;;;15.80;;
24483;SDS011;12643;51.620;7.548;2024-03-08T12:37:20;23.55;;;16.08;;
24483;SDS011;12643;51.620;7.548;2024-03-08T12:39:49;23.02;;;15.85;;
24483;SDS011;12643;51.620;7.548;2024-03-08T12:42:18;26.63;;;14.70;;
24483;SDS011;12643;51.620;7.548;2024-03-08T12:44:47;24.02;;;15.50;;
24483;SDS011;12643;51.620;7.548;2024-03-08T12:47:17;22.35;;;15.93;;
24483;SDS011;12643;51.620;7.548;2024-03-08T12:49:46;24.55;;;16.00;;
24483;SDS011;12643;51.620;7.548;2024-03-08T12:52:14;24.23;;;16.15;;
24483;SDS011;12643;51.620;7.548;2024-03-08T12:54:44;24.88;;;16.13;;
24483;SDS011;12643;51.620;7.548;2024-03-08T12:57:13;25.70;;;17.25;;
24483;SDS011;12643;51.620;7.548;2024-03-08T12:59:42;29.27;;;17.73;;
24483;SDS011;12643;51.620;7.548;2024-03-08T13:02:11;31.10;;;16.80;;
24483;SDS011;12643;51.620;7.548;2024-03-08T13:04:39;26.20;;;18.50;;
24483;SDS011;12643;51.620;7.548;2024-03-08T13:07:07;29.77;;;17.98;;
24483;SDS011;12643;51.620;7.548;2024-03-08T13:09:35;31.35;;;18.92;;
24483;SDS011;12643;51.620;7.548;2024-03-08T13:12:04;27.23;;;17.67;;
24483;SDS011;12643;51.620;7.548;2024-03-08T13:14:34;25.20;;;18.00;;
24483;SDS011;12643;51.620;7.548;2024-03-08T13:17:03;26.95;;;18.05;;
24483;SDS011;12643;51.620;7.548;2024-03-08T13:19:32;26.40;;;18.20;;
24483;SDS011;12643;51.620;7.548;2024-03-08T13:22:00;27.90;;;18.27;;
24483;SDS011;12643;51.620;7.548;2024-03-08T13:24:31;24.40;;;17.42;;
24483;SDS011;12643;51.620;7.548;2024-03-08T13:27:00;24.10;;;17.00;;
24483;SDS011;12643;51.620;7.548;2024-03-08T13:29:42;28.55;;;18.05;;
24483;SDS011;12643;51.620;7.548;2024-03-08T13:32:10;28.75;;;19.98;;
24483;SDS011;12643;51.620;7.548;2024-03-08T13:34:41;29.77;;;20.45;;
24483;SDS011;12643;51.620;7.548;2024-03-08T13:37:10;30.63;;;20.20;;
24483;SDS011;12643;51.620;7.548;2024-03-08T13:39:41;30.60;;;20.15;;
24483;SDS011;12643;51.620;7.548;2024-03-08T13:42:10;24.70;;;17.70;;
24483;SDS011;12643;51.620;7.548;2024-03-08T13:44:44;25.08;;;18.02;;
24483;SDS011;12643;51.620;7.548;2024-03-08T13:47:13;28.33;;;19.85;;
24483;SDS011;12643;51.620;7.548;2024-03-08T13:49:42;30.27;;;20.13;;
24483;SDS011;12643;51.620;7.548;2024-03-08T13:52:10;32.22;;;21.38;;
24483;SDS011;12643;51.620;7.548;2024-03-08T13:54:42;30.95;;;19.88;;
24483;SDS011;12643;51.620;7.548;2024-03-08T13:57:10;27.05;;;20.08;;
24483;SDS011;12643;51.620;7.548;2024-03-08T13:59:38;38.10;;;22.45;;
24483;SDS011;12643;51.620;7.548;2024-03-08T14:02:06;31.05;;;20.95;;
24483;SDS011;12643;51.620;7.548;2024-03-08T14:04:38;29.20;;;20.35;;
24483;SDS011;12643;51.620;7.548;2024-03-08T14:07:08;30.05;;;21.23;;
24483;SDS011;12643;51.620;7.548;2024-03-08T14:09:36;29.70;;;21.52;;
24483;SDS011;12643;51.620;7.548;2024-03-08T14:12:08;33.25;;;21.27;;
24483;SDS011;12643;51.620;7.548;2024-03-08T14:14:36;30.23;;;21.08;;
24483;SDS011;12643;51.620;7.548;2024-03-08T14:17:04;34.42;;;22.13;;
24483;SDS011;12643;51.620;7.548;2024-03-08T14:19:35;29.67;;;21.58;;
24483;SDS011;12643;51.620;7.548;2024-03-08T14:22:05;32.75;;;21.85;;
24483;SDS011;12643;51.620;7.548;2024-03-08T14:24:34;29.38;;;20.73;;
24483;SDS011;12643;51.620;7.548;2024-03-08T14:27:02;32.13;;;21.35;;
24483;SDS011;12643;51.620;7.548;2024-03-08T14:29:34;35.13;;;22.40;;
24483;SDS011;12643;51.620;7.548;2024-03-08T14:32:03;29.95;;;21.25;;
24483;SDS011;12643;51.620;7.548;2024-03-08T14:34:31;34.10;;;22.20;;
24483;SDS011;12643;51.620;7.548;2024-03-08T14:36:59;29.77;;;20.20;;
24483;SDS011;12643;51.620;7.548;2024-03-08T14:42:00;30.70;;;19.70;;
24483;SDS011;12643;51.620;7.548;2024-03-08T14:44:29;37.45;;;20.83;;
24483;SDS011;12643;51.620;7.548;2024-03-08T14:46:57;33.20;;;21.17;;
24483;SDS011;12643;51.620;7.548;2024-03-08T14:49:25;37.88;;;21.23;;
24483;SDS011;12643;51.620;7.548;2024-03-08T14:51:54;30.42;;;20.70;;
24483;SDS011;12643;51.620;7.548;2024-03-08T14:54:23;33.17;;;22.33;;
24483;SDS011;12643;51.620;7.548;2024-03-08T14:56:51;32.60;;;20.98;;